sensor_id;sensor_type;location;lat;lon;timestamp;pressure;altitude;pressure_sealevel;temperature
51693;BMP280;37777;53.066;21.638;2023-06-14T00:06:28;100791.00;;;14.47
51693;BMP280;37777;53.066;21.638;2023-06-14T00:13:31;100744.75;;;14.28
51693;BMP280;37777;53.066;21.638;2023-06-14T00:20:33;100752.47;;;14.45
51693;BMP280;37777;53.066;21.638;2023-06-14T00:27:35;100736.16;;;14.49
51693;BMP280;37777;53.066;21.638;2023-06-14T00:34:37;100724.50;;;14.48
51693;BMP280;37777;53.066;21.638;2023-06-14T00:41:39;100719.13;;;14.52
51693;BMP280;37777;53.066;21.638;2023-06-14T00:48:42;100717.25;;;14.56
51693;BMP280;37777;53.066;21.638;2023-06-14T00:55:44;100712.88;;;14.52
51693;BMP280;37777;53.066;21.638;2023-06-14T01:02:46;100715.91;;;14.46
51693;BMP280;37777;53.066;21.638;2023-06-14T01:17:02;100715.81;;;14.89
51693;BMP280;37777;53.066;21.638;2023-06-14T01:24:05;100704.50;;;14.60
51693;BMP280;37777;53.066;21.638;2023-06-14T01:31:07;100690.63;;;14.46
51693;BMP280;37777;53.066;21.638;2023-06-14T01:38:10;100689.81;;;14.42
51693;BMP280;37777;53.066;21.638;2023-06-14T01:45:12;100699.00;;;14.34
51693;BMP280;37777;53.066;21.638;2023-06-14T01:52:14;100704.44;;;14.83
51693;BMP280;37777;53.066;21.638;2023-06-14T01:59:17;100707.06;;;14.76
51693;BMP280;37777;53.066;21.638;2023-06-14T02:06:19;100716.66;;;14.93
51693;BMP280;37777;53.066;21.638;2023-06-14T02:13:21;100723.84;;;15.09
51693;BMP280;37777;53.066;21.638;2023-06-14T02:20:24;100721.44;;;15.03
51693;BMP280;37777;53.066;21.638;2023-06-14T02:27:26;100717.53;;;15.01
51693;BMP280;37777;53.066;21.638;2023-06-14T02:34:28;100728.44;;;15.01
51693;BMP280;37777;53.066;21.638;2023-06-14T02:41:30;100731.88;;;14.98
51693;BMP280;37777;53.066;21.638;2023-06-14T02:48:32;100740.84;;;14.98
51693;BMP280;37777;53.066;21.638;2023-06-14T02:55:35;100722.06;;;14.90
51693;BMP280;37777;53.066;21.638;2023-06-14T03:02:41;100722.66;;;14.79
51693;BMP280;37777;53.066;21.638;2023-06-14T03:09:48;100731.84;;;14.94
51693;BMP280;37777;53.066;21.638;2023-06-14T03:16:51;100729.78;;;14.84
51693;BMP280;37777;53.066;21.638;2023-06-14T03:23:58;100737.59;;;14.89
51693;BMP280;37777;53.066;21.638;2023-06-14T03:31:00;100742.28;;;14.89
51693;BMP280;37777;53.066;21.638;2023-06-14T03:38:03;100743.03;;;14.89
51693;BMP280;37777;53.066;21.638;2023-06-14T03:45:06;100743.47;;;14.91
51693;BMP280;37777;53.066;21.638;2023-06-14T03:52:08;100732.28;;;14.96
51693;BMP280;37777;53.066;21.638;2023-06-14T03:59:11;100736.25;;;15.02
51693;BMP280;37777;53.066;21.638;2023-06-14T04:06:13;100741.47;;;15.15
51693;BMP280;37777;53.066;21.638;2023-06-14T04:13:21;100747.31;;;15.13
51693;BMP280;37777;53.066;21.638;2023-06-14T04:20:23;100743.41;;;15.14
51693;BMP280;37777;53.066;21.638;2023-06-14T04:27:28;100734.25;;;14.99
51693;BMP280;37777;53.066;21.638;2023-06-14T04:34:32;100738.56;;;15.00
51693;BMP280;37777;53.066;21.638;2023-06-14T04:41:36;100746.78;;;15.04
51693;BMP280;37777;53.066;21.638;2023-06-14T04:48:39;100747.09;;;14.99
51693;BMP280;37777;53.066;21.638;2023-06-14T04:55:44;100746.94;;;15.15
51693;BMP280;37777;53.066;21.638;2023-06-14T05:02:47;100748.72;;;15.30
51693;BMP280;37777;53.066;21.638;2023-06-14T05:09:51;100748.19;;;15.48
51693;BMP280;37777;53.066;21.638;2023-06-14T05:16:53;100747.09;;;15.56
51693;BMP280;37777;53.066;21.638;2023-06-14T05:23:55;100754.31;;;15.71
51693;BMP280;37777;53.066;21.638;2023-06-14T05:30:57;100751.22;;;15.76
51693;BMP280;37777;53.066;21.638;2023-06-14T05:38:00;100752.78;;;15.77
51693;BMP280;37777;53.066;21.638;2023-06-14T05:45:02;100763.69;;;15.77
51693;BMP280;37777;53.066;21.638;2023-06-14T05:52:04;100765.97;;;15.72
51693;BMP280;37777;53.066;21.638;2023-06-14T05:59:06;100778.16;;;15.78
51693;BMP280;37777;53.066;21.638;2023-06-14T06:06:08;100734.47;;;15.44
51693;BMP280;37777;53.066;21.638;2023-06-14T06:13:10;100744.09;;;15.08
51693;BMP280;37777;53.066;21.638;2023-06-14T06:20:12;100752.47;;;15.49
51693;BMP280;37777;53.066;21.638;2023-06-14T06:27:14;100762.31;;;15.91
51693;BMP280;37777;53.066;21.638;2023-06-14T06:34:17;100781.78;;;16.27
51693;BMP280;37777;53.066;21.638;2023-06-14T06:41:19;100790.31;;;16.59
51693;BMP280;37777;53.066;21.638;2023-06-14T06:48:21;100772.66;;;17.05
51693;BMP280;37777;53.066;21.638;2023-06-14T06:55:23;100777.22;;;17.53
51693;BMP280;37777;53.066;21.638;2023-06-14T07:02:26;100785.06;;;17.68
51693;BMP280;37777;53.066;21.638;2023-06-14T07:09:29;100780.75;;;17.64
51693;BMP280;37777;53.066;21.638;2023-06-14T07:16:31;100790.16;;;17.66
51693;BMP280;37777;53.066;21.638;2023-06-14T07:23:34;100778.84;;;17.72
51693;BMP280;37777;53.066;21.638;2023-06-14T07:30:36;100785.06;;;17.65
51693;BMP280;37777;53.066;21.638;2023-06-14T07:37:38;100788.56;;;17.58
51693;BMP280;37777;53.066;21.638;2023-06-14T07:44:40;100788.56;;;17.62
51693;BMP280;37777;53.066;21.638;2023-06-14T07:51:42;100790.13;;;17.59
51693;BMP280;37777;53.066;21.638;2023-06-14T07:58:46;100800.38;;;17.77
51693;BMP280;37777;53.066;21.638;2023-06-14T08:05:48;100785.97;;;18.23
51693;BMP280;37777;53.066;21.638;2023-06-14T08:12:50;100802.03;;;18.42
51693;BMP280;37777;53.066;21.638;2023-06-14T08:19:52;100809.91;;;18.55
51693;BMP280;37777;53.066;21.638;2023-06-14T08:26:58;100805.94;;;18.66
51693;BMP280;37777;53.066;21.638;2023-06-14T08:34:02;100816.16;;;18.70
51693;BMP280;37777;53.066;21.638;2023-06-14T08:41:07;100821.63;;;18.66
51693;BMP280;37777;53.066;21.638;2023-06-14T08:48:12;100824.38;;;18.70
51693;BMP280;37777;53.066;21.638;2023-06-14T08:55:19;100829.44;;;18.96
51693;BMP280;37777;53.066;21.638;2023-06-14T09:02:27;100838.03;;;19.02
51693;BMP280;37777;53.066;21.638;2023-06-14T09:09:30;100839.63;;;19.03
51693;BMP280;37777;53.066;21.638;2023-06-14T09:16:32;100839.22;;;19.01
51693;BMP280;37777;53.066;21.638;2023-06-14T09:23:39;100831.78;;;19.12
51693;BMP280;37777;53.066;21.638;2023-06-14T09:30:42;100837.94;;;19.41
51693;BMP280;37777;53.066;21.638;2023-06-14T09:37:44;100827.66;;;19.63
51693;BMP280;37777;53.066;21.638;2023-06-14T09:44:49;100831.28;;;19.39
51693;BMP280;37777;53.066;21.638;2023-06-14T09:51:52;100828.63;;;19.10
51693;BMP280;37777;53.066;21.638;2023-06-14T09:58:56;100842.75;;;18.83
51693;BMP280;37777;53.066;21.638;2023-06-14T10:06:09;100843.91;;;18.28
51693;BMP280;37777;53.066;21.638;2023-06-14T10:13:12;100863.75;;;17.93
51693;BMP280;37777;53.066;21.638;2023-06-14T10:20:39;100880.03;;;17.57
51693;BMP280;37777;53.066;21.638;2023-06-14T10:27:44;100873.25;;;17.37
51693;BMP280;37777;53.066;21.638;2023-06-14T10:35:07;100882.63;;;17.39
51693;BMP280;37777;53.066;21.638;2023-06-14T10:42:10;100865.78;;;17.34
51693;BMP280;37777;53.066;21.638;2023-06-14T10:49:12;100873.56;;;17.24
51693;BMP280;37777;53.066;21.638;2023-06-14T10:56:28;100867.72;;;17.22
51693;BMP280;37777;53.066;21.638;2023-06-14T11:03:36;100874.13;;;17.00
51693;BMP280;37777;53.066;21.638;2023-06-14T11:10:43;100869.19;;;16.68
51693;BMP280;37777;53.066;21.638;2023-06-14T11:17:52;100857.25;;;16.42
51693;BMP280;37777;53.066;21.638;2023-06-14T11:24:58;100857.13;;;16.31
51693;BMP280;37777;53.066;21.638;2023-06-14T11:32:07;100848.22;;;16.04
51693;BMP280;37777;53.066;21.638;2023-06-14T11:39:13;100841.66;;;15.78
51693;BMP280;37777;53.066;21.638;2023-06-14T11:46:15;100835.75;;;16.03
51693;BMP280;37777;53.066;21.638;2023-06-14T11:53:18;100819.94;;;16.20
51693;BMP280;37777;53.066;21.638;2023-06-14T12:00:25;100814.34;;;16.46
51693;BMP280;37777;53.066;21.638;2023-06-14T12:07:27;100817.75;;;16.77
51693;BMP280;37777;53.066;21.638;2023-06-14T12:14:33;100816.84;;;17.10
51693;BMP280;37777;53.066;21.638;2023-06-14T12:21:36;100817.00;;;17.36
51693;BMP280;37777;53.066;21.638;2023-06-14T12:28:41;100815.50;;;17.53
51693;BMP280;37777;53.066;21.638;2023-06-14T12:35:46;100801.50;;;17.65
51693;BMP280;37777;53.066;21.638;2023-06-14T12:42:48;100793.69;;;17.70
51693;BMP280;37777;53.066;21.638;2023-06-14T12:49:50;100797.31;;;18.03
51693;BMP280;37777;53.066;21.638;2023-06-14T12:56:52;100790.31;;;18.31
51693;BMP280;37777;53.066;21.638;2023-06-14T13:03:54;100778.97;;;18.40
51693;BMP280;37777;53.066;21.638;2023-06-14T13:10:57;100769.19;;;18.46
51693;BMP280;37777;53.066;21.638;2023-06-14T13:18:00;100766.06;;;18.30
51693;BMP280;37777;53.066;21.638;2023-06-14T13:25:03;100771.53;;;18.47
51693;BMP280;37777;53.066;21.638;2023-06-14T13:32:06;100773.44;;;18.76
51693;BMP280;37777;53.066;21.638;2023-06-14T13:39:09;100765.38;;;19.50
51693;BMP280;37777;53.066;21.638;2023-06-14T13:46:12;100757.97;;;19.50
51693;BMP280;37777;53.066;21.638;2023-06-14T13:53:14;100752.66;;;19.07
51693;BMP280;37777;53.066;21.638;2023-06-14T14:00:17;100754.63;;;19.03
51693;BMP280;37777;53.066;21.638;2023-06-14T14:07:24;100751.16;;;18.88
51693;BMP280;37777;53.066;21.638;2023-06-14T14:14:27;100745.31;;;18.39
51693;BMP280;37777;53.066;21.638;2023-06-14T14:21:29;100742.97;;;18.38
51693;BMP280;37777;53.066;21.638;2023-06-14T14:28:32;100742.16;;;18.66
51693;BMP280;37777;53.066;21.638;2023-06-14T14:35:36;100742.50;;;18.90
51693;BMP280;37777;53.066;21.638;2023-06-14T14:42:38;100740.94;;;18.92
51693;BMP280;37777;53.066;21.638;2023-06-14T14:49:41;100734.72;;;18.74
51693;BMP280;37777;53.066;21.638;2023-06-14T14:56:43;100731.97;;;18.77
51693;BMP280;37777;53.066;21.638;2023-06-14T15:03:45;100723.75;;;18.66
51693;BMP280;37777;53.066;21.638;2023-06-14T15:10:59;100721.78;;;18.78
51693;BMP280;37777;53.066;21.638;2023-06-14T15:18:02;100722.16;;;18.83
51693;BMP280;37777;53.066;21.638;2023-06-14T15:25:05;100721.81;;;18.67
51693;BMP280;37777;53.066;21.638;2023-06-14T15:32:08;100711.28;;;18.55
51693;BMP280;37777;53.066;21.638;2023-06-14T15:39:10;100714.38;;;18.42
51693;BMP280;37777;53.066;21.638;2023-06-14T15:46:12;100721.44;;;18.29
51693;BMP280;37777;53.066;21.638;2023-06-14T15:53:14;100727.34;;;18.17
51693;BMP280;37777;53.066;21.638;2023-06-14T16:00:17;100724.53;;;17.81
51693;BMP280;37777;53.066;21.638;2023-06-14T16:07:20;100715.06;;;17.42
51693;BMP280;37777;53.066;21.638;2023-06-14T16:14:22;100710.28;;;17.25
51693;BMP280;37777;53.066;21.638;2023-06-14T16:21:24;100710.66;;;17.23
51693;BMP280;37777;53.066;21.638;2023-06-14T16:28:26;100714.88;;;17.03
51693;BMP280;37777;53.066;21.638;2023-06-14T16:35:29;100708.16;;;16.97
51693;BMP280;37777;53.066;21.638;2023-06-14T16:42:32;100709.75;;;16.98
51693;BMP280;37777;53.066;21.638;2023-06-14T16:49:34;100710.91;;;16.89
51693;BMP280;37777;53.066;21.638;2023-06-14T16:56:36;100710.88;;;16.93
51693;BMP280;37777;53.066;21.638;2023-06-14T17:03:39;100704.25;;;16.94
51693;BMP280;37777;53.066;21.638;2023-06-14T17:10:41;100702.22;;;16.77
51693;BMP280;37777;53.066;21.638;2023-06-14T17:17:43;100695.22;;;16.79
51693;BMP280;37777;53.066;21.638;2023-06-14T17:24:45;100693.63;;;16.74
51693;BMP280;37777;53.066;21.638;2023-06-14T17:31:47;100693.19;;;16.69
51693;BMP280;37777;53.066;21.638;2023-06-14T17:38:49;100708.44;;;16.70
51693;BMP280;37777;53.066;21.638;2023-06-14T17:45:52;100705.28;;;16.68
51693;BMP280;37777;53.066;21.638;2023-06-14T17:52:54;100706.84;;;16.69
51693;BMP280;37777;53.066;21.638;2023-06-14T17:59:56;100697.91;;;16.72
51693;BMP280;37777;53.066;21.638;2023-06-14T18:06:58;100699.75;;;16.61
51693;BMP280;37777;53.066;21.638;2023-06-14T18:14:01;100703.69;;;16.63
51693;BMP280;37777;53.066;21.638;2023-06-14T18:21:03;100699.75;;;16.61
51693;BMP280;37777;53.066;21.638;2023-06-14T18:28:06;100707.47;;;16.48
51693;BMP280;37777;53.066;21.638;2023-06-14T18:35:08;100694.97;;;16.43
51693;BMP280;37777;53.066;21.638;2023-06-14T18:42:10;100707.06;;;16.46
51693;BMP280;37777;53.066;21.638;2023-06-14T18:49:13;100710.94;;;16.41
51693;BMP280;37777;53.066;21.638;2023-06-14T18:56:15;100704.78;;;16.51
51693;BMP280;37777;53.066;21.638;2023-06-14T19:03:17;100709.03;;;16.49
51693;BMP280;37777;53.066;21.638;2023-06-14T19:10:20;100714.91;;;16.47
51693;BMP280;37777;53.066;21.638;2023-06-14T19:17:23;100719.22;;;16.55
51693;BMP280;37777;53.066;21.638;2023-06-14T19:24:25;100727.16;;;16.71
51693;BMP280;37777;53.066;21.638;2023-06-14T19:31:28;100724.81;;;16.70
51693;BMP280;37777;53.066;21.638;2023-06-14T19:38:30;100725.19;;;16.68
51693;BMP280;37777;53.066;21.638;2023-06-14T19:45:34;100722.75;;;16.60
51693;BMP280;37777;53.066;21.638;2023-06-14T19:52:36;100714.28;;;16.68
51693;BMP280;37777;53.066;21.638;2023-06-14T19:59:39;100721.63;;;16.61
51693;BMP280;37777;53.066;21.638;2023-06-14T20:06:41;100726.28;;;16.60
51693;BMP280;37777;53.066;21.638;2023-06-14T20:13:43;100732.44;;;16.46
51693;BMP280;37777;53.066;21.638;2023-06-14T20:20:45;100743.44;;;16.53
51693;BMP280;37777;53.066;21.638;2023-06-14T20:27:47;100741.84;;;16.52
51693;BMP280;37777;53.066;21.638;2023-06-14T20:34:49;100739.50;;;16.54
51693;BMP280;37777;53.066;21.638;2023-06-14T20:41:55;100730.47;;;16.43
51693;BMP280;37777;53.066;21.638;2023-06-14T20:48:58;100734.75;;;16.44
51693;BMP280;37777;53.066;21.638;2023-06-14T20:56:00;100735.63;;;16.55
51693;BMP280;37777;53.066;21.638;2023-06-14T21:03:03;100726.97;;;16.46
51693;BMP280;37777;53.066;21.638;2023-06-14T21:10:05;100726.16;;;16.42
51693;BMP280;37777;53.066;21.638;2023-06-14T21:17:07;100712.19;;;16.51
51693;BMP280;37777;53.066;21.638;2023-06-14T21:24:10;100705.13;;;16.46
51693;BMP280;37777;53.066;21.638;2023-06-14T21:31:14;100723.72;;;16.30
51693;BMP280;37777;53.066;21.638;2023-06-14T21:38:17;100715.06;;;16.24
51693;BMP280;37777;53.066;21.638;2023-06-14T21:45:19;100714.31;;;16.27
51693;BMP280;37777;53.066;21.638;2023-06-14T21:52:21;100710.88;;;16.34
51693;BMP280;37777;53.066;21.638;2023-06-14T21:59:24;100710.50;;;16.35
51693;BMP280;37777;53.066;21.638;2023-06-14T22:06:26;100703.44;;;16.31
51693;BMP280;37777;53.066;21.638;2023-06-14T22:13:28;100699.94;;;16.34
51693;BMP280;37777;53.066;21.638;2023-06-14T22:20:34;100692.63;;;16.42
51693;BMP280;37777;53.066;21.638;2023-06-14T22:27:36;100686.34;;;16.41
51693;BMP280;37777;53.066;21.638;2023-06-14T22:34:48;100688.22;;;16.30
51693;BMP280;37777;53.066;21.638;2023-06-14T22:41:51;100673.78;;;16.33
51693;BMP280;37777;53.066;21.638;2023-06-14T22:48:55;100675.56;;;16.07
51693;BMP280;37777;53.066;21.638;2023-06-14T22:55:57;100682.25;;;16.17
51693;BMP280;37777;53.066;21.638;2023-06-14T23:02:59;100691.31;;;16.25
51693;BMP280;37777;53.066;21.638;2023-06-14T23:10:05;100686.97;;;16.20
51693;BMP280;37777;53.066;21.638;2023-06-14T23:17:07;100671.25;;;16.06
51693;BMP280;37777;53.066;21.638;2023-06-14T23:24:13;100661.91;;;16.11
51693;BMP280;37777;53.066;21.638;2023-06-14T23:31:16;100656.00;;;16.05
51693;BMP280;37777;53.066;21.638;2023-06-14T23:38:19;100671.25;;;16.06
51693;BMP280;37777;53.066;21.638;2023-06-14T23:45:22;100667.72;;;16.02
51693;BMP280;37777;53.066;21.638;2023-06-14T23:52:28;100663.81;;;16.00
51693;BMP280;37777;53.066;21.638;2023-06-14T23:59:31;100652.41;;;15.94
